Terminal Aerodrome Forecast
Issued by NWS

Home | Current Version | Previous Version | Text Only | Print | Product List | Glossary On
Versions: 1 2 3 4 5 6 7 8 9 10 11 12 13 14 15 16 17 18 19 20 21 22 23 24 25
000
FTUS45 KRIW 291100
TAFPNA
TAF
KPNA 291129Z 2912/3012 32006KT P6SM VCFG FEW004 SCT050
      TEMPO 2912/2914 3SM BR SCT004
     FM291600 30006KT P6SM SCT050
     FM292000 29007KT P6SM VCSH BKN050
     FM300200 29007KT P6SM SCT060
      AMD LTD TO CLD VIS AND WIND=

USA.gov is the U.S. government's official web portal to all federal, state and local government web resources and services.